Time;durP1;ratioP1;P1;durP2;ratioP2;P2;SDS_P1;SDS_P2;PMS_P1;PMS_P2;Temp;Humidity;BMP_temperature;BMP_pressure;BME280_temperature;BME280_humidity;BME280_pressure;Samples;Min_cycle;Max_cycle;Signal;HPM_P1;HPM_P2
2023/09/08 00:01:41;;;;;;;9.02;5.90;;;;;;;20.24;83.36;101480.38;5098645;28;20059;-90
2023/09/08 00:04:07;;;;;;;8.03;5.40;;;;;;;20.22;82.88;101482.53;5115979;28;20042;-90
2023/09/08 00:06:33;;;;;;;12.63;5.88;;;;;;;20.16;83.70;101478.91;5115442;28;20024;-89
2023/09/08 00:08:58;;;;;;;7.63;5.23;;;;;;;20.13;84.71;101473.94;5115621;28;20023;-90
2023/09/08 00:11:24;;;;;;;8.10;6.00;;;;;;;20.13;85.95;101482.22;5115500;28;20104;-89
2023/09/08 00:13:50;;;;;;;6.68;5.43;;;;;;;20.07;87.33;101483.28;5115638;28;20027;-90
2023/09/08 00:16:16;;;;;;;8.00;6.00;;;;;;;20.06;88.22;101495.38;5116726;28;20031;-90
2023/09/08 00:18:41;;;;;;;7.00;5.80;;;;;;;20.00;88.56;101488.16;5116488;28;20028;-89
2023/09/08 00:21:06;;;;;;;7.20;5.63;;;;;;;20.00;89.70;101490.09;5114882;28;20515;-89
2023/09/08 00:23:32;;;;;;;8.35;6.03;;;;;;;19.92;89.15;101491.41;5116607;28;20043;-89
2023/09/08 00:25:58;;;;;;;7.87;5.67;;;;;;;19.89;89.61;101495.53;5115303;28;20460;-90
2023/09/08 00:28:24;;;;;;;10.25;5.90;;;;;;;19.86;89.76;101500.75;5097966;28;20032;-89
2023/09/08 00:30:49;;;;;;;8.47;5.87;;;;;;;19.82;89.14;101494.91;5116327;28;20607;-89
2023/09/08 00:33:15;;;;;;;7.00;5.80;;;;;;;19.79;91.46;101488.00;5097243;28;20491;-90
2023/09/08 00:35:44;;;;;;;6.70;6.00;;;;;;;19.77;91.27;101497.59;5116313;28;20073;-89
2023/09/08 00:38:09;;;;;;;6.60;5.90;;;;;;;19.72;91.79;101490.09;5114644;28;20653;-90
2023/09/08 00:40:40;;;;;;;10.85;6.85;;;;;;;19.75;90.30;101494.25;5114511;28;20122;-90
2023/09/08 00:43:05;;;;;;;7.87;5.93;;;;;;;19.71;91.20;101491.22;5115024;28;20070;-89
2023/09/08 00:45:31;;;;;;;9.25;6.30;;;;;;;19.65;90.37;101489.50;5114568;28;20052;-89
2023/09/08 00:47:56;;;;;;;12.57;6.60;;;;;;;19.64;88.72;101479.59;5115972;28;20032;-89
2023/09/08 00:50:22;;;;;;;6.97;5.83;;;;;;;19.64;89.80;101488.66;5115779;28;20039;-90
2023/09/08 00:52:51;;;;;;;8.07;6.15;;;;;;;19.63;90.73;101483.41;5116052;28;20059;-90
2023/09/08 00:55:17;;;;;;;10.50;6.90;;;;;;;19.60;88.75;101492.19;5114784;28;20452;-90
2023/09/08 00:57:43;;;;;;;9.13;6.00;;;;;;;19.56;89.72;101478.13;5116182;28;20038;-89
2023/09/08 01:00:09;;;;;;;12.43;6.65;;;;;;;19.58;90.65;101488.88;5115694;28;20027;-89
2023/09/08 01:02:34;;;;;;;9.90;6.30;;;;;;;19.54;89.78;101482.22;5113836;28;20019;-89
2023/09/08 01:05:00;;;;;;;9.45;6.22;;;;;;;19.54;90.67;101485.81;5115587;28;20027;-90
2023/09/08 01:07:30;;;;;;;8.40;6.37;;;;;;;19.52;91.30;101485.25;5114263;28;20032;-90
2023/09/08 01:09:56;;;;;;;7.53;6.40;;;;;;;19.45;92.06;101476.38;5114373;28;20015;-89
2023/09/08 01:12:21;;;;;;;7.32;6.00;;;;;;;19.47;92.21;101479.69;5114652;28;20030;-89
2023/09/08 01:14:47;;;;;;;6.17;5.47;;;;;;;19.45;91.99;101488.19;5097685;28;20041;-89
2023/09/08 01:17:12;;;;;;;12.10;6.70;;;;;;;19.41;91.92;101480.72;5114195;28;20487;-89
2023/09/08 01:19:38;;;;;;;10.67;6.47;;;;;;;19.40;92.95;101476.31;5115503;28;20382;-89
2023/09/08 01:22:28;;;;;;;9.23;6.25;;;;;;;19.39;92.15;101483.72;5115504;28;20027;-89
2023/09/08 01:25:12;;;;;;;9.50;6.30;;;;;;;19.36;92.00;101483.44;5113975;28;20027;-90
2023/09/08 01:27:40;;;;;;;8.82;6.18;;;;;;;19.30;94.13;101482.53;5113739;28;20065;-90
2023/09/08 01:30:07;;;;;;;10.57;6.28;;;;;;;19.30;94.74;101488.06;5113827;28;20088;-90
2023/09/08 01:32:34;;;;;;;8.97;6.57;;;;;;;19.30;96.41;101484.47;5114508;28;20028;-90
2023/09/08 01:35:00;;;;;;;8.90;6.50;;;;;;;19.31;95.40;101489.72;5114872;28;20027;-90
2023/09/08 01:37:28;;;;;;;8.38;6.47;;;;;;;19.24;95.57;101481.66;5113816;28;20046;-90
2023/09/08 01:39:53;;;;;;;11.63;6.22;;;;;;;19.20;94.36;101487.94;5114853;28;20066;-89
2023/09/08 01:42:19;;;;;;;9.00;6.30;;;;;;;19.19;94.33;101487.13;5113741;28;20483;-90
2023/09/08 01:44:44;;;;;;;6.80;6.00;;;;;;;19.12;94.87;101486.47;5113399;28;20020;-89
2023/09/08 01:47:10;;;;;;;9.48;6.70;;;;;;;19.11;94.48;101485.63;5113471;28;20038;-89
2023/09/08 01:49:35;;;;;;;8.57;6.13;;;;;;;19.04;94.74;101487.75;5096211;28;20042;-89
2023/09/08 01:52:01;;;;;;;9.67;6.80;;;;;;;19.02;94.65;101486.34;5112620;28;20122;-89
2023/09/08 01:54:26;;;;;;;8.07;6.33;;;;;;;19.01;95.95;101477.25;5113668;28;20055;-90
2023/09/08 01:56:52;;;;;;;9.67;6.07;;;;;;;18.96;96.37;101479.97;5113253;28;20028;-90
2023/09/08 01:59:20;;;;;;;9.77;6.32;;;;;;;18.92;96.68;101476.88;5114418;28;20032;-90
2023/09/08 02:01:46;;;;;;;11.50;6.57;;;;;;;18.87;96.52;101474.06;5112612;28;20035;-89
2023/09/08 02:04:11;;;;;;;9.27;6.73;;;;;;;18.85;96.81;101473.47;5113249;28;20032;-89
2023/09/08 02:06:36;;;;;;;8.93;6.80;;;;;;;18.82;96.94;101478.66;5113381;28;20028;-89
2023/09/08 02:09:03;;;;;;;7.57;5.93;;;;;;;18.82;97.54;101479.47;5114004;28;20020;-89
2023/09/08 02:11:28;;;;;;;9.82;6.88;;;;;;;18.75;98.06;101473.34;5096314;28;20036;-89
2023/09/08 02:13:54;;;;;;;8.13;6.83;;;;;;;18.75;98.35;101485.16;5113039;28;20092;-89
2023/09/08 02:16:19;;;;;;;9.77;6.10;;;;;;;18.70;99.27;101481.53;5112968;28;20075;-89
2023/09/08 02:18:45;;;;;;;8.43;6.10;;;;;;;18.68;98.23;101481.78;5113240;28;20027;-89
2023/09/08 02:21:11;;;;;;;6.80;6.10;;;;;;;18.67;97.80;101480.09;5113138;28;20027;-89
2023/09/08 02:23:37;;;;;;;8.02;6.90;;;;;;;18.62;98.33;101473.72;5096545;28;20031;-89
2023/09/08 02:26:03;;;;;;;10.53;7.03;;;;;;;18.61;98.65;101472.88;5113041;28;20027;-90
2023/09/08 02:28:29;;;;;;;8.20;6.63;;;;;;;18.58;98.34;101470.63;5113608;28;20284;-89
2023/09/08 02:30:54;;;;;;;8.23;6.82;;;;;;;18.54;100.00;101472.22;5096009;28;20028;-89
2023/09/08 02:33:20;;;;;;;11.20;6.70;;;;;;;18.49;100.00;101473.00;5112169;28;20058;-90
2023/09/08 02:35:46;;;;;;;8.27;6.73;;;;;;;18.47;99.85;101466.94;5079471;28;20350;-89
2023/09/08 02:38:11;;;;;;;12.93;6.67;;;;;;;18.43;100.00;101467.69;5114206;28;20088;-89
2023/09/08 02:40:37;;;;;;;8.13;6.88;;;;;;;18.39;100.00;101467.34;5112967;28;20027;-89
2023/09/08 02:43:03;;;;;;;10.33;6.90;;;;;;;18.38;100.00;101466.53;5112842;28;20116;-89
2023/09/08 02:45:29;;;;;;;10.15;6.60;;;;;;;18.36;100.00;101470.59;5114211;28;20031;-89
2023/09/08 02:47:54;;;;;;;11.93;7.00;;;;;;;18.31;100.00;101463.13;5113807;28;20028;-89
2023/09/08 02:50:20;;;;;;;10.45;7.38;;;;;;;18.33;100.00;101471.13;5113009;28;20115;-89
2023/09/08 02:52:46;;;;;;;10.43;7.03;;;;;;;18.28;100.00;101474.63;5113251;28;20019;-89
2023/09/08 02:55:14;;;;;;;8.07;7.05;;;;;;;18.26;100.00;101474.03;5112451;28;20118;-89
2023/09/08 02:57:40;;;;;;;10.18;7.25;;;;;;;18.27;100.00;101475.69;5112631;28;20555;-89
2023/09/08 03:00:07;;;;;;;8.03;6.87;;;;;;;18.22;100.00;101470.16;5112787;28;20040;-89
2023/09/08 03:02:33;;;;;;;10.63;7.43;;;;;;;18.16;100.00;101471.97;5115375;28;20024;-89
2023/09/08 03:04:58;;;;;;;8.53;6.53;;;;;;;18.18;100.00;101471.72;5117069;28;20026;-90
2023/09/08 03:07:24;;;;;;;7.75;6.88;;;;;;;18.15;100.00;101474.97;5116853;28;20042;-89
2023/09/08 03:09:49;;;;;;;9.57;7.00;;;;;;;18.10;100.00;101472.97;5117785;28;20084;-89
2023/09/08 03:12:15;;;;;;;8.37;6.90;;;;;;;18.05;100.00;101472.88;5116805;28;20027;-89
2023/09/08 03:14:40;;;;;;;9.33;6.83;;;;;;;18.03;100.00;101464.91;5117804;28;20088;-89
2023/09/08 03:17:06;;;;;;;7.63;6.90;;;;;;;18.00;100.00;101470.91;5116395;28;20089;-90
2023/09/08 03:19:31;;;;;;;11.07;7.70;;;;;;;17.96;100.00;101475.22;5118008;28;20092;-90
2023/09/08 03:21:57;;;;;;;8.95;7.90;;;;;;;17.88;100.00;101470.94;5098977;28;20384;-89
2023/09/08 03:24:22;;;;;;;11.07;7.47;;;;;;;17.83;100.00;101476.38;5099742;28;20035;-89
2023/09/08 03:26:48;;;;;;;9.27;7.50;;;;;;;17.84;100.00;101469.78;5116567;28;20540;-89
2023/09/08 03:29:13;;;;;;;9.53;7.43;;;;;;;17.80;100.00;101470.53;5116240;28;20477;-89
2023/09/08 03:31:43;;;;;;;9.30;7.78;;;;;;;17.76;100.00;101463.88;5115732;28;20024;-89
2023/09/08 03:34:09;;;;;;;10.83;7.63;;;;;;;17.73;100.00;101473.44;5116010;28;20503;-90
2023/09/08 03:36:37;;;;;;;8.45;7.18;;;;;;;17.74;100.00;101460.56;5116277;28;20038;-89
2023/09/08 03:39:06;;;;;;;11.43;7.50;;;;;;;17.65;100.00;101466.44;5099624;28;20041;-89
2023/09/08 03:41:32;;;;;;;9.10;7.15;;;;;;;17.61;100.00;101469.94;5116037;28;20391;-89
2023/09/08 03:43:57;;;;;;;10.75;7.45;;;;;;;17.58;100.00;101465.75;5116207;28;20035;-89
2023/09/08 03:46:25;;;;;;;10.47;7.70;;;;;;;17.54;100.00;101464.63;5117078;28;20112;-89
2023/09/08 03:48:51;;;;;;;8.63;7.00;;;;;;;17.51;100.00;101459.63;5116897;28;20031;-89
2023/09/08 03:51:16;;;;;;;13.10;7.63;;;;;;;17.49;100.00;101461.75;5117377;28;20027;-89
2023/09/08 03:53:42;;;;;;;9.20;6.83;;;;;;;17.51;100.00;101462.38;5117019;28;20467;-89
2023/09/08 03:56:07;;;;;;;9.77;6.95;;;;;;;17.51;100.00;101465.94;5115619;28;20165;-89
2023/09/08 03:58:32;;;;;;;11.50;6.97;;;;;;;17.46;100.00;101457.59;5115583;28;20107;-90
2023/09/08 04:00:58;;;;;;;10.10;7.67;;;;;;;17.46;100.00;101451.28;5098597;28;20069;-89
2023/09/08 04:03:23;;;;;;;9.60;7.37;;;;;;;17.48;100.00;101460.94;5115312;28;20071;-89
2023/09/08 04:05:49;;;;;;;12.45;8.05;;;;;;;17.45;100.00;101453.22;5116917;28;20456;-90
2023/09/08 04:08:14;;;;;;;10.37;8.10;;;;;;;17.43;100.00;101455.34;5115503;28;20182;-90
2023/09/08 04:10:40;;;;;;;14.40;7.90;;;;;;;17.42;100.00;101456.44;5098555;28;20038;-90
2023/09/08 04:13:07;;;;;;;9.73;8.00;;;;;;;17.42;100.00;101453.69;5115077;28;20040;-90
2023/09/08 04:15:33;;;;;;;12.67;8.73;;;;;;;17.39;100.00;101453.34;5115189;28;20305;-89
2023/09/08 04:18:01;;;;;;;14.88;8.10;;;;;;;17.42;100.00;101456.44;5116059;28;20101;-89
2023/09/08 04:20:27;;;;;;;9.87;8.43;;;;;;;17.38;100.00;101457.16;5098234;28;20028;-89
2023/09/08 04:22:52;;;;;;;10.75;8.35;;;;;;;17.35;100.00;101450.28;5115189;28;20088;-89
2023/09/08 04:25:18;;;;;;;13.90;7.93;;;;;;;17.38;100.00;101451.66;5115276;28;20538;-89
2023/09/08 04:27:44;;;;;;;11.03;7.50;;;;;;;17.35;100.00;101444.78;5115139;28;20491;-89
2023/09/08 04:30:10;;;;;;;9.15;7.80;;;;;;;17.36;100.00;101449.19;5116197;28;20020;-89
2023/09/08 04:32:37;;;;;;;10.25;7.95;;;;;;;17.29;100.00;101446.59;5115420;28;20161;-89
2023/09/08 04:35:04;;;;;;;9.00;7.80;;;;;;;17.30;100.00;101441.94;5115424;28;20527;-89
2023/09/08 04:37:40;;;;;;;9.07;7.95;;;;;;;17.29;100.00;101440.31;5098094;28;20475;-92
2023/09/08 04:40:07;;;;;;;12.52;8.27;;;;;;;17.26;100.00;101443.50;5098265;28;20024;-89
2023/09/08 04:42:32;;;;;;;12.98;8.50;;;;;;;17.26;100.00;101440.75;5116297;28;20020;-90
2023/09/08 04:44:58;;;;;;;10.63;7.70;;;;;;;17.26;100.00;101446.25;5115055;28;20386;-89
2023/09/08 04:47:23;;;;;;;9.53;7.70;;;;;;;17.22;100.00;101445.09;5115391;28;20466;-89
2023/09/08 04:49:49;;;;;;;9.67;8.30;;;;;;;17.18;100.00;101451.06;5115770;28;20342;-89
2023/09/08 04:52:14;;;;;;;11.23;8.47;;;;;;;17.18;100.00;101444.75;5098022;28;20020;-89
2023/09/08 04:54:40;;;;;;;13.50;8.37;;;;;;;17.18;100.00;101450.22;5116025;28;20039;-89
2023/09/08 04:57:05;;;;;;;11.07;8.60;;;;;;;17.14;100.00;101451.78;5115695;28;20036;-89
2023/09/08 04:59:32;;;;;;;12.17;8.93;;;;;;;17.14;100.00;101454.53;5114345;28;20047;-89
2023/09/08 05:02:02;;;;;;;10.23;8.40;;;;;;;17.11;100.00;101455.88;5115328;28;20038;-89
2023/09/08 05:04:28;;;;;;;11.40;8.48;;;;;;;17.16;100.00;101455.94;5114554;28;20126;-89
2023/09/08 05:06:56;;;;;;;11.90;8.93;;;;;;;17.16;100.00;101466.09;5097110;28;20184;-89
2023/09/08 05:09:21;;;;;;;14.27;8.63;;;;;;;17.18;100.00;101461.19;5114164;28;20023;-89
2023/09/08 05:11:49;;;;;;;15.77;8.70;;;;;;;17.17;100.00;101459.53;5114378;28;20027;-88
2023/09/08 05:14:20;;;;;;;10.73;8.68;;;;;;;17.22;100.00;101461.56;5097125;28;20032;-90
2023/09/08 05:16:46;;;;;;;16.98;8.68;;;;;;;17.22;100.00;101462.38;5114979;28;20046;-91
2023/09/08 05:19:15;;;;;;;12.83;8.73;;;;;;;17.24;100.00;101457.47;5114405;28;20039;-89
2023/09/08 05:21:43;;;;;;;15.18;8.73;;;;;;;17.27;100.00;101459.75;5113935;28;20379;-89
2023/09/08 05:24:09;;;;;;;13.90;8.77;;;;;;;17.32;100.00;101459.81;5114096;28;20028;-91
2023/09/08 05:26:36;;;;;;;15.55;8.77;;;;;;;17.34;100.00;101463.13;5113817;28;20063;-88
2023/09/08 05:29:02;;;;;;;16.47;9.43;;;;;;;17.38;100.00;101462.66;5113977;28;20031;-90
2023/09/08 05:31:30;;;;;;;16.98;9.15;;;;;;;17.37;100.00;101461.81;5113253;28;20019;-89
2023/09/08 05:33:55;;;;;;;14.03;8.80;;;;;;;17.43;100.00;101462.75;5112809;28;20053;-88
2023/09/08 05:36:21;;;;;;;16.20;9.30;;;;;;;17.47;100.00;101466.69;5113905;28;20027;-88
2023/09/08 05:38:46;;;;;;;20.70;9.30;;;;;;;17.50;100.00;101467.00;5113733;28;20480;-88
2023/09/08 05:41:17;;;;;;;16.90;9.43;;;;;;;17.53;100.00;101471.16;5096625;28;20024;-88
2023/09/08 05:43:44;;;;;;;17.73;9.68;;;;;;;17.57;100.00;101475.09;5114073;28;20046;-90
2023/09/08 05:46:18;;;;;;;16.77;9.65;;;;;;;17.60;100.00;101479.22;5113632;28;20031;-90
2023/09/08 05:48:43;;;;;;;17.55;9.60;;;;;;;17.68;100.00;101481.59;5113471;28;20536;-89
2023/09/08 05:51:12;;;;;;;18.10;8.97;;;;;;;17.71;100.00;101478.34;5113151;28;20032;-90
2023/09/08 05:53:39;;;;;;;19.42;10.65;;;;;;;17.77;100.00;101482.00;5113237;28;20058;-89
2023/09/08 05:56:05;;;;;;;17.40;8.80;;;;;;;17.84;100.00;101488.16;5114384;27;20040;-89
2023/09/08 05:58:31;;;;;;;13.13;9.00;;;;;;;17.88;100.00;101475.63;5113391;28;20104;-87
2023/09/08 06:00:59;;;;;;;15.13;9.00;;;;;;;17.93;100.00;101467.47;5113226;28;20016;-88
2023/09/08 06:03:27;;;;;;;16.98;9.40;;;;;;;17.98;100.00;101478.56;5113996;27;20034;-89
2023/09/08 06:05:55;;;;;;;13.73;9.30;;;;;;;18.05;100.00;101476.50;5113434;28;20110;-89
2023/09/08 06:08:23;;;;;;;19.67;9.45;;;;;;;18.12;100.00;101475.47;5112795;28;20436;-88
2023/09/08 06:10:48;;;;;;;17.23;9.65;;;;;;;18.18;100.00;101479.97;5112788;28;20494;-88
2023/09/08 06:13:16;;;;;;;19.03;9.30;;;;;;;18.25;100.00;101480.63;5114016;28;20051;-88
2023/09/08 06:15:42;;;;;;;18.27;8.70;;;;;;;18.31;100.00;101484.28;5114426;28;20028;-88
2023/09/08 06:18:11;;;;;;;16.93;8.97;;;;;;;18.36;100.00;101492.59;5113463;28;20034;-89
2023/09/08 06:20:37;;;;;;;20.52;9.38;;;;;;;18.40;100.00;101489.06;5112672;28;20028;-89
2023/09/08 06:23:02;;;;;;;17.70;8.80;;;;;;;18.50;100.00;101496.66;5113968;28;20100;-89
2023/09/08 06:25:33;;;;;;;16.73;8.67;;;;;;;18.58;100.00;101500.88;5112424;28;20047;-89
2023/09/08 06:28:00;;;;;;;16.70;9.30;;;;;;;18.64;100.00;101490.78;5114304;28;20028;-88
2023/09/08 06:30:28;;;;;;;14.77;9.23;;;;;;;18.71;100.00;101495.00;5098552;28;20042;-89
2023/09/08 06:32:54;;;;;;;17.25;9.15;;;;;;;18.79;100.00;101487.41;5111908;28;20031;-89
2023/09/08 06:35:19;;;;;;;23.70;10.57;;;;;;;18.86;100.00;101493.59;5095783;28;20032;-88
2023/09/08 06:37:47;;;;;;;20.53;9.63;;;;;;;18.92;99.78;101495.31;5113688;28;20038;-88
2023/09/08 06:40:13;;;;;;;17.45;10.13;;;;;;;19.00;99.78;101499.50;5112072;28;20027;-88
2023/09/08 06:42:38;;;;;;;17.07;9.53;;;;;;;19.05;99.30;101496.84;5112621;28;20076;-88
2023/09/08 06:45:07;;;;;;;33.20;9.93;;;;;;;19.14;99.51;101495.28;5095200;28;20756;-88
2023/09/08 06:47:32;;;;;;;25.98;9.68;;;;;;;19.24;98.84;101487.16;5112152;28;20031;-92
2023/09/08 06:49:58;;;;;;;17.57;9.40;;;;;;;19.31;98.58;101492.47;5112331;28;20474;-88
2023/09/08 06:52:23;;;;;;;16.70;9.83;;;;;;;19.39;98.86;101500.25;5111936;28;20096;-88
2023/09/08 06:54:48;;;;;;;19.63;9.83;;;;;;;19.49;98.36;101504.19;5112363;28;20116;-87
2023/09/08 06:57:18;;;;;;;15.10;9.85;;;;;;;19.57;97.94;101506.47;5113550;28;20383;-87
2023/09/08 06:59:43;;;;;;;17.03;9.27;;;;;;;19.63;97.93;101509.03;5113938;28;20142;-87
2023/09/08 07:02:09;;;;;;;14.20;9.25;;;;;;;19.70;96.41;101505.25;5112076;28;20472;-87
2023/09/08 07:04:34;;;;;;;14.10;9.00;;;;;;;19.80;96.84;101508.13;5114481;28;20024;-87
2023/09/08 07:07:06;;;;;;;13.93;9.30;;;;;;;19.87;96.89;101505.97;5113359;28;20524;-88
2023/09/08 07:09:32;;;;;;;15.15;8.57;;;;;;;19.95;95.95;101504.66;5112682;28;20027;-87
2023/09/08 07:11:58;;;;;;;14.95;9.52;;;;;;;20.04;95.17;101505.84;5113595;28;20026;-87
2023/09/08 07:14:23;;;;;;;12.90;8.77;;;;;;;20.10;95.23;101506.72;5095431;28;20031;-87
2023/09/08 07:16:49;;;;;;;12.80;9.07;;;;;;;20.18;94.72;101516.41;5113705;28;20490;-87
2023/09/08 07:19:14;;;;;;;15.30;9.75;;;;;;;20.23;93.99;101510.94;5113452;28;20031;-88
2023/09/08 07:21:40;;;;;;;14.90;9.30;;;;;;;20.34;93.17;101515.41;5095552;28;20047;-87
2023/09/08 07:24:06;;;;;;;11.87;9.53;;;;;;;20.41;93.21;101512.44;5113494;28;20073;-87
2023/09/08 07:26:31;;;;;;;15.25;10.65;;;;;;;20.48;92.80;101516.63;5112491;28;20474;-88
2023/09/08 07:28:56;;;;;;;16.17;9.50;;;;;;;20.57;92.28;101516.94;5112622;28;20039;-88
2023/09/08 07:31:22;;;;;;;12.33;9.10;;;;;;;20.62;92.49;101511.44;5112284;28;20038;-88
2023/09/08 07:33:47;;;;;;;14.75;8.65;;;;;;;20.72;92.19;101519.00;5111399;28;20163;-88
2023/09/08 07:36:13;;;;;;;12.00;7.77;;;;;;;20.82;92.38;101526.50;5112031;28;20527;-88
2023/09/08 07:38:39;;;;;;;10.17;8.37;;;;;;;20.91;92.70;101522.13;5091593;28;20032;-88
2023/09/08 07:41:04;;;;;;;11.45;7.90;;;;;;;21.02;92.05;101521.06;5093160;28;20024;-87
2023/09/08 07:43:30;;;;;;;20.90;8.70;;;;;;;21.13;90.71;101518.38;5092045;28;20024;-88
2023/09/08 07:45:55;;;;;;;14.93;8.30;;;;;;;21.20;91.00;101508.72;5092530;28;20039;-88
2023/09/08 07:48:23;;;;;;;12.20;8.70;;;;;;;21.29;89.49;101505.41;5091652;28;20039;-88
2023/09/08 07:50:48;;;;;;;10.47;8.17;;;;;;;21.38;89.67;101512.09;5095347;28;20032;-87
2023/09/08 07:53:14;;;;;;;17.42;7.90;;;;;;;21.45;89.60;101509.91;5095287;28;20035;-87
2023/09/08 07:55:39;;;;;;;13.23;7.63;;;;;;;21.51;89.42;101514.34;5095580;28;20131;-88
2023/09/08 07:58:05;;;;;;;11.37;7.70;;;;;;;21.62;89.81;101508.84;5095513;28;20031;-87
2023/09/08 08:00:33;;;;;;;10.83;7.57;;;;;;;21.73;88.41;101510.50;5096409;28;20472;-87
2023/09/08 08:02:58;;;;;;;13.35;7.20;;;;;;;21.81;88.91;101501.69;5094848;28;20125;-88
2023/09/08 08:05:27;;;;;;;11.98;7.70;;;;;;;21.89;88.94;101503.06;5095170;28;20032;-88
2023/09/08 08:07:56;;;;;;;9.57;7.90;;;;;;;21.96;87.71;101505.56;5095152;28;20024;-87
2023/09/08 08:10:21;;;;;;;11.55;7.30;;;;;;;22.03;87.66;101495.88;5095037;28;20063;-88
2023/09/08 08:12:49;;;;;;;9.47;7.27;;;;;;;22.13;86.99;101495.06;5094986;28;20055;-88
2023/09/08 08:15:14;;;;;;;10.40;6.80;;;;;;;22.21;87.28;101499.19;5094962;28;20032;-87
2023/09/08 08:17:40;;;;;;;10.77;6.70;;;;;;;22.29;86.04;101508.84;5094857;28;20032;-88
2023/09/08 08:20:19;;;;;;;8.63;6.80;;;;;;;22.38;86.32;101507.19;5094943;28;20521;-88
2023/09/08 08:22:45;;;;;;;11.70;6.80;;;;;;;22.48;86.18;101506.34;5094759;28;20479;-88
2023/09/08 08:25:13;;;;;;;11.77;6.78;;;;;;;22.56;85.42;101506.63;5096166;28;20036;-88
2023/09/08 08:27:40;;;;;;;8.07;6.60;;;;;;;22.60;85.55;101504.09;5094842;28;20074;-87
2023/09/08 08:30:06;;;;;;;11.27;6.87;;;;;;;22.70;85.05;101515.13;5094696;28;20076;-88
2023/09/08 08:32:33;;;;;;;13.35;6.88;;;;;;;22.80;83.65;101517.06;5095513;28;20035;-88
2023/09/08 08:34:58;;;;;;;8.38;6.60;;;;;;;22.87;82.62;101514.81;5094305;28;20456;-87
2023/09/08 08:37:24;;;;;;;7.73;6.20;;;;;;;22.98;82.42;101514.78;5095908;28;20115;-88
2023/09/08 08:39:49;;;;;;;10.23;7.30;;;;;;;23.05;81.91;101513.34;5095688;28;20043;-88
2023/09/08 08:42:17;;;;;;;8.17;6.40;;;;;;;23.12;81.95;101508.38;5077464;28;20514;-93
2023/09/08 08:44:44;;;;;;;8.68;6.30;;;;;;;23.22;81.74;101521.34;5094252;28;20123;-89
2023/09/08 08:47:10;;;;;;;8.63;6.40;;;;;;;23.28;81.09;101503.59;5094602;28;20044;-86
2023/09/08 08:49:45;;;;;;;8.75;6.07;;;;;;;23.39;80.76;101515.41;5094937;28;20438;-91
2023/09/08 08:52:13;;;;;;;12.90;6.63;;;;;;;23.48;80.23;101516.47;5095133;28;20028;-91
2023/09/08 08:54:42;;;;;;;7.00;6.10;;;;;;;23.56;80.75;101506.75;5094833;28;20054;-91
2023/09/08 08:57:14;;;;;;;9.52;6.43;;;;;;;23.68;81.06;101511.94;5095241;28;20031;-91
2023/09/08 08:59:41;;;;;;;9.17;6.50;;;;;;;23.72;77.87;101499.13;5094731;28;20031;-91
2023/09/08 09:02:08;;;;;;;10.13;6.53;;;;;;;23.80;78.67;101503.25;5095983;28;20024;-89
2023/09/08 09:04:46;;;;;;;10.48;6.80;;;;;;;23.87;78.09;101502.94;5095104;28;20357;-91
2023/09/08 09:07:15;;;;;;;11.98;6.47;;;;;;;24.01;76.96;101511.44;5095609;28;20032;-91
2023/09/08 09:09:43;;;;;;;9.10;6.25;;;;;;;24.07;77.46;101508.31;5094737;28;20156;-91
2023/09/08 09:12:11;;;;;;;11.57;6.27;;;;;;;24.16;77.04;101509.31;5078450;28;20036;-91
2023/09/08 09:14:37;;;;;;;12.50;6.50;;;;;;;24.26;76.81;101502.84;5094396;28;20467;-91
2023/09/08 09:17:04;;;;;;;10.73;6.50;;;;;;;24.38;76.04;101502.47;5094235;28;20039;-91
2023/09/08 09:19:31;;;;;;;10.17;6.30;;;;;;;24.51;76.65;101506.50;5094424;28;20266;-91
2023/09/08 09:21:59;;;;;;;11.15;6.78;;;;;;;24.61;74.52;101511.97;5093873;28;20028;-91
2023/09/08 09:24:45;;;;;;;9.98;6.57;;;;;;;24.73;74.11;101507.94;5093596;28;20480;-91
2023/09/08 09:27:18;;;;;;;11.00;6.55;;;;;;;24.84;74.65;101507.50;5093992;28;20121;-91
2023/09/08 09:29:48;;;;;;;9.35;6.20;;;;;;;24.95;74.60;101504.63;5094089;28;20028;-91
2023/09/08 09:32:15;;;;;;;11.03;6.43;;;;;;;25.10;73.27;101506.34;5093714;28;20031;-91
2023/09/08 09:35:01;;;;;;;8.50;6.60;;;;;;;25.18;72.78;101503.75;5093203;28;20056;-91
2023/09/08 09:37:32;;;;;;;9.02;6.60;;;;;;;25.30;71.73;101496.94;5093771;28;20398;-91
2023/09/08 09:40:05;;;;;;;8.52;6.75;;;;;;;25.41;72.92;101501.25;5094011;28;20444;-91
2023/09/08 09:42:38;;;;;;;11.43;6.78;;;;;;;25.52;72.16;101505.50;5093722;28;20497;-91
2023/09/08 09:45:04;;;;;;;9.17;6.70;;;;;;;25.63;71.21;101508.13;5093181;28;20024;-92
2023/09/08 09:47:33;;;;;;;10.63;6.78;;;;;;;25.76;70.73;101510.16;5093170;28;20480;-91
2023/09/08 09:49:59;;;;;;;13.27;6.78;;;;;;;25.90;69.92;101502.69;5093176;28;20035;-91
2023/09/08 09:52:30;;;;;;;7.28;6.38;;;;;;;26.05;69.32;101504.41;5095333;28;20028;-91
2023/09/08 09:55:03;;;;;;;8.45;5.97;;;;;;;26.17;69.48;101503.94;5093800;28;20036;-92
2023/09/08 09:57:32;;;;;;;9.13;6.53;;;;;;;26.22;67.60;101500.22;5093375;28;20032;-91
2023/09/08 09:59:59;;;;;;;8.60;6.30;;;;;;;26.28;68.30;101501.81;5094612;28;20070;-91
2023/09/08 10:02:26;;;;;;;9.63;5.82;;;;;;;26.36;67.76;101501.06;5094125;28;20039;-92
2023/09/08 10:04:58;;;;;;;8.20;6.20;;;;;;;26.54;68.34;101495.75;5093133;28;20119;-91
2023/09/08 10:07:24;;;;;;;10.40;6.55;;;;;;;26.68;67.55;101501.31;5093057;28;20035;-91
2023/09/08 10:09:53;;;;;;;8.60;6.70;;;;;;;26.81;67.35;101494.13;5092760;28;20118;-91
2023/09/08 10:12:28;;;;;;;11.00;7.00;;;;;;;26.92;67.00;101496.38;5092240;28;20028;-91
2023/09/08 10:14:59;;;;;;;8.30;6.10;;;;;;;27.09;66.09;101498.53;5092904;28;20032;-90
2023/09/08 10:17:28;;;;;;;9.90;6.22;;;;;;;27.20;65.86;101498.31;5092961;28;20530;-86
2023/09/08 10:20:07;;;;;;;8.98;6.50;;;;;;;27.23;65.22;101498.50;5094378;28;20044;-91
2023/09/08 10:22:33;;;;;;;10.13;6.53;;;;;;;27.38;64.45;101499.31;5092960;28;20111;-87
2023/09/08 10:25:06;;;;;;;8.55;5.75;;;;;;;27.56;64.42;101503.06;5092742;28;20116;-88
2023/09/08 10:27:32;;;;;;;8.80;5.67;;;;;;;27.82;63.31;101500.50;5076009;28;20361;-88
2023/09/08 10:30:01;;;;;;;9.18;6.30;;;;;;;27.98;62.73;101496.19;5092482;28;20375;-85
2023/09/08 10:32:36;;;;;;;11.23;6.85;;;;;;;28.09;62.58;101499.53;5094007;28;20051;-87
2023/09/08 10:35:04;;;;;;;8.68;6.35;;;;;;;28.23;61.11;101496.69;5092497;28;20059;-86
2023/09/08 10:37:30;;;;;;;8.13;5.70;;;;;;;28.42;61.15;101498.38;5091760;28;20046;-87
2023/09/08 10:40:46;;;;;;;10.07;5.80;;;;;;;28.70;61.89;101499.88;5092388;28;20024;-90
2023/09/08 10:43:23;;;;;;;9.40;6.50;;;;;;;28.72;59.88;101493.13;5058924;28;20036;-92
2023/09/08 10:45:51;;;;;;;7.78;6.38;;;;;;;28.73;59.05;101490.03;5089578;28;20084;-91
2023/09/08 10:48:25;;;;;;;11.20;5.97;;;;;;;28.87;59.36;101495.47;5092332;28;20032;-91
2023/09/08 10:50:57;;;;;;;8.70;6.00;;;;;;;29.18;59.43;101488.97;5092605;28;20028;-92
2023/09/08 10:53:31;;;;;;;7.88;6.55;;;;;;;29.56;58.45;101491.16;5076240;28;20487;-91
2023/09/08 10:55:57;;;;;;;7.53;5.93;;;;;;;29.81;56.44;101485.84;5093093;28;20062;-91
2023/09/08 10:58:32;;;;;;;9.43;6.60;;;;;;;30.06;56.47;101490.59;5092173;28;20075;-92
2023/09/08 11:01:01;;;;;;;9.48;6.35;;;;;;;30.23;55.97;101492.50;5092583;28;20035;-92
2023/09/08 11:03:45;;;;;;;7.45;5.85;;;;;;;30.56;55.55;101488.28;5092025;28;20043;-91
2023/09/08 11:06:18;;;;;;;12.80;6.57;;;;;;;30.73;54.34;101484.59;5092432;28;20028;-92
2023/09/08 11:08:54;;;;;;;9.65;6.35;;;;;;;31.02;53.59;101488.56;5093656;28;20107;-91
2023/09/08 11:11:39;;;;;;;9.80;6.38;;;;;;;31.91;50.92;101481.91;5092586;28;20066;-91
2023/09/08 11:14:07;;;;;;;7.85;5.85;;;;;;;34.33;47.07;101487.34;5093282;28;20361;-92
2023/09/08 11:16:35;;;;;;;8.07;6.30;;;;;;;37.96;39.11;101484.63;5091815;28;20064;-92
2023/09/08 11:19:04;;;;;;;10.03;6.07;;;;;;;40.61;34.25;101474.91;5092758;28;20062;-92